Time;durP1;ratioP1;P1;durP2;ratioP2;P2;SDS_P1;SDS_P2;PMS_P1;PMS_P2;Temp;Humidity;BMP_temperature;BMP_pressure;BME280_temperature;BME280_humidity;BME280_pressure;Samples;Min_cycle;Max_cycle;Signal;HPM_P1;HPM_P2
2023/11/17 00:01:52;;;;;;;21.60;16.67;;;4.80;99.90;;;;;;5139987;27;20458;-64
2023/11/17 00:04:21;;;;;;;25.40;18.23;;;4.80;99.90;;;;;;5139971;27;20553;-63
2023/11/17 00:06:48;;;;;;;23.40;16.30;;;4.80;99.90;;;;;;5138948;27;20533;-64
2023/11/17 00:09:16;;;;;;;19.53;15.77;;;4.70;99.90;;;;;;5138525;27;20494;-62
2023/11/17 00:11:43;;;;;;;25.40;18.43;;;4.70;99.90;;;;;;5138436;27;20465;-64
2023/11/17 00:14:11;;;;;;;24.17;17.33;;;4.70;99.90;;;;;;5138098;27;20460;-64
2023/11/17 00:16:39;;;;;;;24.27;17.37;;;4.70;99.90;;;;;;5138762;27;20505;-63
2023/11/17 00:19:07;;;;;;;26.90;17.93;;;4.70;99.90;;;;;;5138936;27;20459;-64
2023/11/17 00:21:36;;;;;;;22.33;17.53;;;4.60;99.90;;;;;;5140260;27;20900;-64
2023/11/17 00:24:05;;;;;;;22.20;17.93;;;4.60;99.90;;;;;;5139784;27;20466;-64
2023/11/17 00:26:33;;;;;;;22.47;17.60;;;4.60;99.90;;;;;;5140307;27;20736;-64
2023/11/17 00:29:01;;;;;;;21.30;18.40;;;4.60;99.90;;;;;;5138771;27;20917;-63
2023/11/17 00:31:31;;;;;;;19.47;17.40;;;4.60;99.90;;;;;;5139283;27;20463;-64
2023/11/17 00:33:58;;;;;;;22.60;16.67;;;4.60;99.90;;;;;;5140097;27;20481;-64
2023/11/17 00:36:26;;;;;;;19.97;15.97;;;4.60;99.90;;;;;;5139710;27;20487;-64
2023/11/17 00:38:55;;;;;;;20.40;16.50;;;4.50;99.90;;;;;;5139157;27;20514;-64
2023/11/17 00:41:22;;;;;;;21.90;17.80;;;4.40;99.90;;;;;;5139500;27;20454;-64
2023/11/17 00:43:50;;;;;;;18.40;14.87;;;4.30;99.90;;;;;;5139031;27;20497;-64
2023/11/17 00:46:17;;;;;;;18.43;14.80;;;4.30;99.90;;;;;;5139595;27;20459;-64
2023/11/17 00:48:45;;;;;;;19.47;15.90;;;4.40;99.90;;;;;;5138916;27;20490;-64
2023/11/17 00:51:12;;;;;;;21.30;16.13;;;4.30;99.90;;;;;;5139492;27;20465;-64
2023/11/17 00:53:40;;;;;;;17.80;15.47;;;4.40;99.90;;;;;;5139163;27;20549;-64
2023/11/17 00:56:10;;;;;;;19.50;15.60;;;4.40;99.90;;;;;;5139272;27;20458;-64
2023/11/17 00:58:38;;;;;;;18.40;15.20;;;4.40;99.90;;;;;;5139131;27;20459;-64
2023/11/17 01:01:06;;;;;;;18.13;14.80;;;4.40;99.90;;;;;;5139186;27;20464;-64
2023/11/17 01:03:34;;;;;;;19.40;14.97;;;4.40;99.90;;;;;;5139113;27;20458;-64
2023/11/17 01:06:01;;;;;;;17.90;15.57;;;4.30;99.90;;;;;;5139087;27;20464;-64
2023/11/17 01:08:29;;;;;;;20.50;14.70;;;4.20;99.90;;;;;;5139168;27;20886;-64
2023/11/17 01:10:57;;;;;;;18.10;15.20;;;4.20;99.90;;;;;;5138633;27;20461;-65
2023/11/17 01:13:26;;;;;;;20.70;16.80;;;4.20;99.90;;;;;;5138244;27;20507;-64
2023/11/17 01:15:53;;;;;;;20.10;16.77;;;4.20;99.90;;;;;;5138896;27;20465;-64
2023/11/17 01:18:20;;;;;;;26.13;17.60;;;4.30;99.90;;;;;;5139173;27;20816;-64
2023/11/17 01:20:48;;;;;;;21.90;17.53;;;4.30;99.90;;;;;;5138648;27;20759;-64
2023/11/17 01:23:15;;;;;;;22.20;16.03;;;4.20;99.90;;;;;;5138463;27;20463;-64
2023/11/17 01:25:43;;;;;;;21.00;14.90;;;4.20;99.90;;;;;;5138880;27;20476;-64
2023/11/17 01:28:10;;;;;;;18.43;14.40;;;4.20;99.90;;;;;;5138807;27;20539;-64
2023/11/17 01:30:39;;;;;;;15.10;12.97;;;4.20;99.90;;;;;;5137424;27;20576;-64
2023/11/17 01:33:08;;;;;;;16.83;15.03;;;4.20;99.90;;;;;;5138329;27;20507;-64
2023/11/17 01:35:37;;;;;;;18.50;15.63;;;4.10;99.90;;;;;;5138631;27;20433;-64
2023/11/17 01:38:05;;;;;;;19.27;16.30;;;4.10;99.90;;;;;;5138427;27;20490;-64
2023/11/17 01:40:32;;;;;;;20.00;17.20;;;4.10;99.90;;;;;;5138116;27;20450;-64
2023/11/17 01:43:06;;;;;;;20.00;16.77;;;4.10;99.90;;;;;;5138571;27;20461;-64
2023/11/17 01:45:33;;;;;;;21.53;17.87;;;4.10;99.90;;;;;;5138685;27;20462;-64
2023/11/17 01:48:03;;;;;;;19.23;17.13;;;4.10;99.90;;;;;;5138485;27;20779;-65
2023/11/17 01:50:32;;;;;;;20.17;17.97;;;4.10;99.90;;;;;;5138018;27;20529;-64
2023/11/17 01:52:59;;;;;;;18.93;16.87;;;4.10;99.90;;;;;;5138451;27;20831;-64
2023/11/17 01:55:27;;;;;;;21.47;16.83;;;4.10;99.90;;;;;;5138282;27;20821;-64
2023/11/17 01:57:55;;;;;;;20.00;17.17;;;4.00;99.90;;;;;;5138263;27;20487;-64
2023/11/17 02:00:22;;;;;;;21.73;17.73;;;4.00;99.90;;;;;;5138226;27;20553;-64
2023/11/17 02:02:53;;;;;;;19.57;17.23;;;4.00;99.90;;;;;;5136550;27;20462;-64
2023/11/17 02:05:26;;;;;;;20.13;16.50;;;3.90;99.90;;;;;;5138141;28;20533;-64
2023/11/17 02:08:20;;;;;;;20.23;16.07;;;3.90;99.90;;;;;;5138126;28;20777;-63
2023/11/17 02:11:01;;;;;;;19.53;16.73;;;3.90;99.90;;;;;;5137015;28;20459;-64
2023/11/17 02:13:36;;;;;;;18.87;16.87;;;3.80;99.90;;;;;;5138114;28;20508;-64
2023/11/17 02:16:10;;;;;;;20.67;16.97;;;3.70;99.90;;;;;;5138275;28;20747;-64
2023/11/17 02:18:42;;;;;;;18.97;16.60;;;3.70;99.90;;;;;;5138459;28;20773;-64
2023/11/17 02:21:17;;;;;;;17.80;15.90;;;3.60;99.90;;;;;;5137966;28;20463;-64
2023/11/17 02:23:48;;;;;;;19.60;16.40;;;3.60;99.90;;;;;;5139029;27;20458;-64
2023/11/17 02:26:27;;;;;;;20.80;17.70;;;3.50;99.90;;;;;;5142369;27;20501;-64
2023/11/17 02:28:59;;;;;;;22.50;17.20;;;3.40;99.90;;;;;;5142313;27;20509;-64
2023/11/17 02:31:32;;;;;;;21.90;17.13;;;3.40;99.90;;;;;;5141925;27;20472;-64
2023/11/17 02:34:03;;;;;;;21.30;18.43;;;3.40;99.90;;;;;;5142365;27;20541;-64
2023/11/17 02:36:32;;;;;;;23.73;17.93;;;3.30;99.90;;;;;;5141902;27;20458;-64
2023/11/17 02:39:12;;;;;;;21.67;17.90;;;3.30;99.90;;;;;;5141668;27;20800;-64
2023/11/17 02:41:42;;;;;;;23.40;17.70;;;3.30;99.90;;;;;;5141961;27;20887;-64
2023/11/17 02:44:12;;;;;;;20.40;16.80;;;3.20;99.90;;;;;;5142108;27;20902;-64
2023/11/17 02:46:44;;;;;;;24.07;18.77;;;3.30;99.90;;;;;;5142315;27;20446;-64
2023/11/17 02:49:22;;;;;;;23.13;18.90;;;3.20;99.90;;;;;;5141703;27;20494;-64
2023/11/17 02:51:51;;;;;;;23.80;18.73;;;3.20;99.90;;;;;;5141148;27;20458;-64
2023/11/17 02:54:22;;;;;;;22.03;17.50;;;3.20;99.90;;;;;;5141793;27;20464;-64
2023/11/17 02:56:50;;;;;;;22.07;16.73;;;3.20;99.90;;;;;;5141399;27;20520;-64
2023/11/17 02:59:19;;;;;;;22.80;16.87;;;3.20;99.90;;;;;;5141676;27;20549;-64
2023/11/17 03:01:50;;;;;;;21.17;17.60;;;3.20;99.90;;;;;;5141472;27;20462;-64
2023/11/17 03:04:18;;;;;;;26.03;19.10;;;3.20;99.90;;;;;;5141556;27;20557;-64
2023/11/17 03:06:48;;;;;;;22.27;19.00;;;3.20;99.90;;;;;;5141246;27;20813;-64
2023/11/17 03:09:16;;;;;;;21.77;18.47;;;3.20;99.90;;;;;;5141321;27;20511;-64
2023/11/17 03:11:44;;;;;;;22.33;18.77;;;3.30;99.90;;;;;;5141253;27;20515;-64
2023/11/17 03:14:11;;;;;;;25.97;18.80;;;3.30;99.90;;;;;;5141373;27;20458;-64
2023/11/17 03:16:39;;;;;;;21.50;18.80;;;3.40;99.90;;;;;;5141629;27;20540;-63
2023/11/17 03:19:10;;;;;;;25.70;20.10;;;3.40;99.90;;;;;;5141167;27;20482;-63
2023/11/17 03:21:41;;;;;;;22.40;19.97;;;3.50;99.90;;;;;;5141195;27;20755;-64
2023/11/17 03:24:14;;;;;;;24.00;20.57;;;3.50;99.90;;;;;;5141560;27;20884;-64
2023/11/17 03:26:43;;;;;;;25.90;20.23;;;3.60;99.90;;;;;;5141272;27;20454;-64
2023/11/17 03:29:14;;;;;;;25.10;21.03;;;3.60;99.90;;;;;;5140359;27;20462;-63
2023/11/17 03:31:47;;;;;;;22.80;18.50;;;3.70;99.90;;;;;;5141012;27;20856;-64
2023/11/17 03:34:18;;;;;;;24.13;19.50;;;3.80;99.90;;;;;;5141425;27;20466;-64
2023/11/17 03:36:45;;;;;;;25.97;21.20;;;3.80;99.90;;;;;;5139698;27;20511;-64
2023/11/17 03:39:13;;;;;;;29.30;21.50;;;3.90;99.90;;;;;;5140547;27;20982;-64
2023/11/17 03:41:41;;;;;;;23.03;19.87;;;3.90;99.90;;;;;;5140875;27;20451;-64
2023/11/17 03:44:10;;;;;;;24.33;20.87;;;4.00;99.90;;;;;;5141128;27;20542;-64
2023/11/17 03:46:37;;;;;;;25.20;19.00;;;4.00;99.90;;;;;;5140887;27;20792;-64
2023/11/17 03:49:06;;;;;;;20.77;17.63;;;4.00;99.90;;;;;;5140384;27;20446;-64
2023/11/17 03:51:35;;;;;;;21.73;18.13;;;4.00;99.90;;;;;;5140700;27;20454;-64
2023/11/17 03:54:05;;;;;;;27.97;20.60;;;4.00;99.90;;;;;;5140747;27;20750;-64
2023/11/17 03:56:32;;;;;;;27.93;22.63;;;4.10;99.90;;;;;;5140601;27;20461;-64
2023/11/17 03:58:59;;;;;;;30.30;23.20;;;4.20;99.90;;;;;;5139914;27;20581;-64
2023/11/17 04:01:27;;;;;;;28.20;22.07;;;4.20;99.90;;;;;;5140190;27;20439;-64
2023/11/17 04:03:54;;;;;;;27.30;22.20;;;4.30;99.90;;;;;;5140427;27;20948;-64
2023/11/17 04:06:21;;;;;;;28.40;23.17;;;4.30;99.90;;;;;;5140486;27;20760;-64
2023/11/17 04:08:50;;;;;;;33.07;23.13;;;4.30;99.90;;;;;;5140151;27;20914;-64
2023/11/17 04:11:18;;;;;;;30.60;23.87;;;4.30;99.90;;;;;;5140216;27;20552;-64
2023/11/17 04:13:45;;;;;;;29.00;23.50;;;4.30;99.90;;;;;;5140032;27;20557;-64
2023/11/17 04:16:13;;;;;;;32.67;24.57;;;4.30;99.90;;;;;;5140687;27;20557;-64
2023/11/17 04:18:40;;;;;;;26.47;22.83;;;4.30;99.90;;;;;;5139748;27;20494;-64
2023/11/17 04:21:10;;;;;;;29.20;22.73;;;4.30;99.90;;;;;;5140308;27;20557;-64
2023/11/17 04:23:37;;;;;;;28.63;22.80;;;4.30;99.90;;;;;;5139815;27;20499;-63
2023/11/17 04:26:06;;;;;;;28.97;23.70;;;4.20;99.90;;;;;;5140512;27;20486;-64
2023/11/17 04:28:33;;;;;;;31.00;23.43;;;4.10;99.90;;;;;;5139910;27;20457;-64
2023/11/17 04:31:01;;;;;;;30.90;24.10;;;4.10;99.90;;;;;;5139281;27;20740;-64
2023/11/17 04:33:28;;;;;;;29.17;22.80;;;4.10;99.90;;;;;;5139521;27;20811;-64
2023/11/17 04:35:55;;;;;;;28.70;23.57;;;4.20;99.90;;;;;;5139827;27;20893;-64
2023/11/17 04:38:22;;;;;;;29.90;25.30;;;4.20;99.90;;;;;;5139312;27;20526;-64
2023/11/17 04:40:50;;;;;;;28.90;23.13;;;4.10;99.90;;;;;;5139478;27;20498;-63
2023/11/17 04:43:18;;;;;;;30.60;23.87;;;4.10;99.90;;;;;;5139692;27;20537;-64
2023/11/17 04:45:47;;;;;;;31.00;23.40;;;4.20;99.90;;;;;;5139380;27;20966;-64
2023/11/17 04:48:16;;;;;;;29.10;24.40;;;4.10;99.90;;;;;;5138609;27;20450;-64
2023/11/17 04:50:43;;;;;;;30.77;24.00;;;4.10;99.90;;;;;;5138685;27;20542;-64
2023/11/17 04:53:11;;;;;;;32.33;25.30;;;4.10;99.90;;;;;;5139310;27;20858;-63
2023/11/17 04:55:38;;;;;;;30.80;23.97;;;4.10;99.90;;;;;;5139328;27;20531;-63
2023/11/17 04:58:05;;;;;;;34.10;24.77;;;4.10;99.90;;;;;;5139356;27;20487;-64
2023/11/17 05:00:34;;;;;;;35.33;25.03;;;4.10;99.90;;;;;;5139555;27;20458;-64
2023/11/17 05:03:02;;;;;;;30.40;24.63;;;4.10;99.90;;;;;;5138968;27;20530;-64
2023/11/17 05:05:33;;;;;;;27.37;22.80;;;4.10;99.90;;;;;;5138987;27;20804;-64
2023/11/17 05:08:08;;;;;;;33.47;24.40;;;4.10;99.90;;;;;;5094321;27;20930;-65
2023/11/17 05:10:36;;;;;;;33.10;25.00;;;4.10;99.90;;;;;;5094637;28;20568;-64
2023/11/17 05:13:05;;;;;;;31.00;24.17;;;4.10;99.90;;;;;;5093681;28;20896;-63
2023/11/17 05:15:32;;;;;;;40.37;29.80;;;4.10;99.90;;;;;;5094750;28;20572;-64
2023/11/17 05:18:01;;;;;;;43.93;31.60;;;4.10;99.90;;;;;;5094849;28;20873;-65
2023/11/17 05:20:28;;;;;;;40.93;31.30;;;4.10;99.90;;;;;;5094437;28;20456;-64
2023/11/17 05:22:56;;;;;;;40.83;29.77;;;4.10;99.90;;;;;;5094629;28;20480;-64
2023/11/17 05:25:27;;;;;;;30.10;24.13;;;4.10;99.90;;;;;;5094489;28;20907;-64
2023/11/17 05:27:54;;;;;;;42.03;31.97;;;4.10;99.90;;;;;;5094467;28;20494;-64
2023/11/17 05:30:22;;;;;;;40.30;28.67;;;4.00;99.90;;;;;;5094325;28;20555;-64
2023/11/17 05:32:49;;;;;;;43.50;33.30;;;4.00;99.90;;;;;;5094634;28;20555;-64
2023/11/17 05:35:16;;;;;;;34.20;25.27;;;4.00;99.90;;;;;;5094373;28;20457;-64
2023/11/17 05:37:44;;;;;;;34.67;24.60;;;4.00;99.90;;;;;;5094103;28;20940;-63
2023/11/17 05:40:11;;;;;;;38.40;28.67;;;3.90;99.90;;;;;;5094064;28;20460;-63
2023/11/17 05:42:39;;;;;;;36.63;27.80;;;3.90;99.90;;;;;;5094143;28;20543;-63
2023/11/17 05:45:12;;;;;;;28.03;21.93;;;3.90;99.90;;;;;;5093890;28;20498;-64
2023/11/17 05:47:39;;;;;;;45.00;31.67;;;4.00;99.90;;;;;;5093835;28;20967;-64
2023/11/17 05:50:11;;;;;;;32.17;24.80;;;4.00;99.90;;;;;;5094206;28;20453;-64
2023/11/17 05:52:39;;;;;;;31.90;23.23;;;4.00;99.90;;;;;;5094038;28;20468;-64
2023/11/17 05:55:07;;;;;;;30.53;23.63;;;4.00;99.90;;;;;;5094190;28;20487;-64
2023/11/17 05:57:34;;;;;;;36.40;24.40;;;4.00;99.90;;;;;;5093568;28;20548;-64
2023/11/17 06:00:08;;;;;;;33.40;24.70;;;3.90;99.90;;;;;;5093274;28;20510;-63
2023/11/17 06:02:36;;;;;;;31.07;23.93;;;3.90;99.90;;;;;;5093522;28;20546;-64
2023/11/17 06:05:03;;;;;;;31.33;23.80;;;3.90;99.90;;;;;;5093597;28;20539;-64
2023/11/17 06:07:31;;;;;;;27.00;22.20;;;3.90;99.90;;;;;;5093347;28;20591;-64
2023/11/17 06:09:59;;;;;;;29.13;23.67;;;4.00;99.90;;;;;;5093405;28;20467;-64
2023/11/17 06:12:26;;;;;;;29.47;23.03;;;4.00;99.90;;;;;;5093722;28;20460;-64
2023/11/17 06:14:54;;;;;;;28.20;21.97;;;3.90;99.90;;;;;;5093582;28;20514;-64
2023/11/17 06:17:24;;;;;;;28.63;20.80;;;3.90;99.90;;;;;;5089161;28;20477;-62
2023/11/17 06:19:51;;;;;;;24.60;21.80;;;3.90;99.90;;;;;;5076940;28;20837;-63
2023/11/17 06:22:19;;;;;;;25.40;20.83;;;3.90;99.90;;;;;;5076701;28;20476;-64
2023/11/17 06:24:46;;;;;;;27.60;22.50;;;3.90;99.90;;;;;;5078522;28;20550;-64
2023/11/17 06:27:14;;;;;;;28.23;22.77;;;3.90;99.90;;;;;;5079543;28;20497;-64
2023/11/17 06:29:41;;;;;;;28.40;21.93;;;3.90;99.90;;;;;;5079507;28;20885;-64
2023/11/17 06:32:08;;;;;;;24.63;20.57;;;3.90;99.90;;;;;;5079224;28;20499;-64
2023/11/17 06:34:39;;;;;;;27.30;23.40;;;3.80;99.90;;;;;;5078548;28;20460;-63
2023/11/17 06:37:07;;;;;;;26.80;23.73;;;3.80;99.90;;;;;;5077575;28;20459;-63
2023/11/17 06:39:34;;;;;;;24.90;21.53;;;3.80;99.90;;;;;;5077324;28;20862;-69
2023/11/17 06:42:03;;;;;;;28.73;21.23;;;3.80;99.90;;;;;;5077602;28;20514;-68
2023/11/17 06:44:31;;;;;;;24.90;20.83;;;3.80;99.90;;;;;;5077568;28;20774;-68
2023/11/17 06:46:58;;;;;;;27.97;20.33;;;3.70;99.90;;;;;;5077874;28;20551;-68
2023/11/17 06:49:25;;;;;;;30.10;22.37;;;3.60;99.90;;;;;;5077907;28;20548;-69
2023/11/17 06:51:55;;;;;;;22.60;18.53;;;3.60;99.90;;;;;;5078360;28;20535;-69
2023/11/17 06:54:24;;;;;;;22.20;18.10;;;3.60;99.90;;;;;;5078992;28;20461;-69
2023/11/17 06:56:51;;;;;;;26.43;21.93;;;3.50;99.90;;;;;;5079100;28;20458;-69
2023/11/17 06:59:20;;;;;;;23.40;19.37;;;3.50;99.90;;;;;;5078911;28;20553;-69
2023/11/17 07:01:49;;;;;;;23.53;18.90;;;3.50;99.90;;;;;;5078535;28;20463;-69
2023/11/17 07:04:16;;;;;;;26.37;20.17;;;3.50;99.90;;;;;;5060586;28;20461;-69
2023/11/17 07:06:44;;;;;;;28.07;22.13;;;3.60;99.90;;;;;;5078283;28;20926;-69
2023/11/17 07:09:17;;;;;;;26.60;21.07;;;3.60;99.90;;;;;;5078840;28;20510;-69
2023/11/17 07:11:45;;;;;;;32.33;20.50;;;3.70;99.90;;;;;;5078538;28;20789;-68
2023/11/17 07:14:12;;;;;;;29.80;21.70;;;3.70;99.90;;;;;;5077748;28;20461;-69
2023/11/17 07:16:41;;;;;;;31.20;22.17;;;3.70;99.90;;;;;;5077723;28;21129;-69
2023/11/17 07:19:08;;;;;;;30.23;21.50;;;3.70;99.90;;;;;;5077852;28;20467;-68
2023/11/17 07:21:37;;;;;;;27.67;22.50;;;3.70;99.90;;;;;;5077490;28;20453;-68
2023/11/17 07:24:05;;;;;;;35.03;25.07;;;3.80;99.90;;;;;;5077733;28;20789;-68
2023/11/17 07:26:35;;;;;;;33.03;25.37;;;3.80;99.90;;;;;;5077453;28;20461;-68
2023/11/17 07:29:02;;;;;;;35.37;23.57;;;3.90;99.90;;;;;;5076527;28;20534;-68
2023/11/17 07:31:37;;;;;;;28.77;20.90;;;3.90;99.90;;;;;;5076457;28;20496;-68
2023/11/17 07:34:05;;;;;;;29.13;22.57;;;3.90;99.90;;;;;;5077765;28;20457;-69
2023/11/17 07:36:33;;;;;;;31.80;22.90;;;3.90;99.90;;;;;;5078448;28;20727;-69
2023/11/17 07:39:02;;;;;;;40.43;23.83;;;4.00;99.90;;;;;;5078465;28;20860;-69
2023/11/17 07:41:30;;;;;;;35.50;22.40;;;4.00;99.90;;;;;;5078205;28;20462;-69
2023/11/17 07:43:58;;;;;;;27.63;20.80;;;4.10;99.90;;;;;;5078559;28;20875;-69
2023/11/17 07:46:27;;;;;;;31.00;22.27;;;4.10;99.90;;;;;;5076633;28;20464;-68
2023/11/17 07:48:54;;;;;;;39.00;22.23;;;4.10;99.90;;;;;;5074594;28;20450;-69
2023/11/17 07:51:21;;;;;;;34.57;22.70;;;4.00;99.90;;;;;;5074547;28;20846;-69
2023/11/17 07:53:49;;;;;;;34.67;24.27;;;4.10;99.90;;;;;;5075372;28;20536;-68
2023/11/17 07:56:16;;;;;;;36.10;22.60;;;4.20;99.90;;;;;;5075971;28;20479;-68
2023/11/17 07:58:42;;;;;;;29.07;22.23;;;4.20;99.90;;;;;;5075185;28;20507;-69
2023/11/17 08:01:11;;;;;;;29.53;22.80;;;4.20;99.90;;;;;;5076447;28;20432;-69
2023/11/17 08:03:39;;;;;;;29.03;21.67;;;4.30;99.90;;;;;;5076460;28;20453;-68
2023/11/17 08:06:07;;;;;;;26.37;19.97;;;4.30;99.90;;;;;;5075339;28;20485;-69
2023/11/17 08:08:35;;;;;;;30.83;20.47;;;4.40;99.90;;;;;;5075558;28;20493;-68
2023/11/17 08:11:02;;;;;;;36.30;21.53;;;4.40;99.90;;;;;;5075834;28;20468;-69
2023/11/17 08:13:30;;;;;;;33.30;22.63;;;4.40;99.90;;;;;;5075994;28;20493;-68
2023/11/17 08:15:57;;;;;;;30.07;21.40;;;4.40;99.90;;;;;;5068228;28;20462;-69
2023/11/17 08:18:25;;;;;;;27.10;20.47;;;4.50;99.90;;;;;;5075784;28;20427;-69
2023/11/17 08:20:53;;;;;;;28.70;22.20;;;4.50;99.90;;;;;;5076014;28;20475;-68
2023/11/17 08:23:20;;;;;;;33.63;22.13;;;4.60;99.90;;;;;;5076997;28;20771;-69
2023/11/17 08:25:49;;;;;;;31.50;20.73;;;4.60;99.90;;;;;;5077604;28;20461;-69
2023/11/17 08:28:17;;;;;;;30.37;21.43;;;4.60;99.90;;;;;;5075899;28;20500;-69
2023/11/17 08:30:44;;;;;;;29.37;22.30;;;4.60;99.90;;;;;;5075678;28;20489;-69
2023/11/17 08:33:11;;;;;;;28.53;24.37;;;4.70;99.90;;;;;;5075891;28;20500;-69
2023/11/17 08:35:40;;;;;;;32.20;21.50;;;4.70;99.90;;;;;;5075602;28;20759;-67
2023/11/17 08:38:07;;;;;;;32.17;21.13;;;4.80;99.90;;;;;;5075387;28;20526;-69
2023/11/17 08:40:35;;;;;;;28.83;19.70;;;4.80;99.90;;;;;;5075283;28;20879;-69
2023/11/17 08:43:03;;;;;;;28.80;21.60;;;4.80;99.90;;;;;;5075428;28;20810;-69
2023/11/17 08:45:30;;;;;;;29.37;20.50;;;4.90;99.90;;;;;;5075263;28;20454;-69
2023/11/17 08:48:01;;;;;;;28.40;21.23;;;4.90;99.90;;;;;;5077144;28;20490;-69
2023/11/17 08:50:28;;;;;;;28.43;19.67;;;4.90;99.90;;;;;;5076882;28;20981;-69
2023/11/17 08:52:57;;;;;;;27.80;20.27;;;5.00;99.90;;;;;;5076735;28;20544;-70
2023/11/17 08:55:27;;;;;;;27.60;20.00;;;5.00;99.90;;;;;;5076816;28;20462;-70
2023/11/17 08:57:55;;;;;;;28.00;19.67;;;5.10;99.90;;;;;;5076582;28;20439;-70
2023/11/17 09:00:25;;;;;;;29.20;20.13;;;5.00;99.90;;;;;;5076390;28;20464;-69
2023/11/17 09:02:54;;;;;;;33.43;20.93;;;5.10;99.90;;;;;;5076302;28;20461;-69
2023/11/17 09:05:23;;;;;;;27.53;19.40;;;5.00;99.90;;;;;;5077247;28;20461;-69
2023/11/17 09:07:51;;;;;;;28.97;19.37;;;4.90;99.90;;;;;;5076232;28;20500;-69
2023/11/17 09:10:22;;;;;;;24.30;18.80;;;5.00;99.90;;;;;;5076783;28;20527;-69
2023/11/17 09:12:50;;;;;;;26.80;18.87;;;5.00;99.90;;;;;;5076641;28;20924;-69
2023/11/17 09:15:19;;;;;;;29.60;20.40;;;4.80;99.90;;;;;;5076589;28;20470;-69
2023/11/17 09:17:50;;;;;;;25.33;19.10;;;4.80;99.90;;;;;;5077081;28;20611;-69
2023/11/17 09:20:18;;;;;;;26.53;18.40;;;4.90;99.90;;;;;;5076565;28;20917;-69
2023/11/17 09:22:47;;;;;;;28.77;20.23;;;4.90;99.90;;;;;;5076754;28;20568;-69
2023/11/17 09:25:15;;;;;;;28.70;19.83;;;4.90;99.90;;;;;;5076675;28;20461;-69
2023/11/17 09:27:45;;;;;;;26.07;18.40;;;4.90;99.90;;;;;;5076692;28;20489;-69
2023/11/17 09:30:14;;;;;;;24.70;18.53;;;5.20;99.90;;;;;;5075423;28;20461;-69
2023/11/17 09:32:44;;;;;;;25.13;18.20;;;5.30;99.90;;;;;;5076557;28;20463;-69
2023/11/17 09:35:13;;;;;;;27.00;19.57;;;5.60;99.90;;;;;;5076489;28;20457;-69
2023/11/17 09:37:51;;;;;;;26.27;18.97;;;5.80;99.90;;;;;;5076959;28;20453;-69
2023/11/17 09:40:21;;;;;;;24.20;19.10;;;6.00;99.90;;;;;;5075620;28;20457;-69
2023/11/17 09:42:55;;;;;;;26.13;20.27;;;6.10;99.90;;;;;;5064745;28;20465;-69
2023/11/17 09:45:24;;;;;;;26.53;18.60;;;6.30;99.90;;;;;;5075460;28;20467;-68
2023/11/17 09:47:54;;;;;;;25.50;18.57;;;6.40;99.90;;;;;;5076012;28;20941;-68
2023/11/17 09:50:24;;;;;;;23.93;17.87;;;6.50;99.90;;;;;;5076058;28;20480;-68
2023/11/17 09:52:53;;;;;;;25.63;18.70;;;6.50;99.90;;;;;;5076609;28;20468;-67
2023/11/17 09:55:27;;;;;;;53.70;33.37;;;6.60;99.90;;;;;;5079203;28;20544;-68
2023/11/17 09:58:02;;;;;;;29.37;20.17;;;6.70;99.90;;;;;;5078501;28;20457;-68
2023/11/17 10:00:29;;;;;;;30.47;21.00;;;6.80;99.90;;;;;;5078605;28;20456;-67
2023/11/17 10:03:00;;;;;;;29.03;19.43;;;6.90;99.90;;;;;;5078174;28;20952;-67
2023/11/17 10:05:29;;;;;;;24.37;19.20;;;6.70;99.90;;;;;;5078300;28;20505;-67
2023/11/17 10:07:59;;;;;;;26.50;20.23;;;6.90;99.90;;;;;;5077443;28;20496;-67
2023/11/17 10:10:30;;;;;;;24.97;19.37;;;7.20;99.90;;;;;;5079054;28;20461;-68
2023/11/17 10:13:00;;;;;;;25.17;18.20;;;7.30;99.90;;;;;;5080366;28;20461;-67
2023/11/17 10:15:28;;;;;;;22.57;18.33;;;7.30;99.90;;;;;;5080374;28;20461;-68
2023/11/17 10:17:59;;;;;;;24.20;16.90;;;7.20;99.90;;;;;;5080713;28;20468;-67
2023/11/17 10:20:27;;;;;;;23.40;17.90;;;7.20;99.90;;;;;;5080856;28;20476;-67
2023/11/17 10:22:55;;;;;;;26.30;19.30;;;7.10;99.90;;;;;;5080943;28;20464;-67
2023/11/17 10:25:23;;;;;;;26.37;18.90;;;7.00;99.90;;;;;;5081327;28;20522;-67
2023/11/17 10:27:51;;;;;;;30.80;21.07;;;7.00;99.90;;;;;;5080847;28;20528;-67
2023/11/17 10:30:21;;;;;;;29.87;21.40;;;6.90;99.90;;;;;;5079648;28;20501;-67
2023/11/17 10:32:57;;;;;;;26.63;19.33;;;6.90;99.90;;;;;;5080507;28;20458;-67
2023/11/17 10:35:31;;;;;;;29.30;19.87;;;6.90;99.90;;;;;;5079817;28;20474;-66
2023/11/17 10:37:58;;;;;;;30.70;19.20;;;6.90;99.90;;;;;;5080405;28;20481;-67
2023/11/17 10:40:28;;;;;;;23.97;19.30;;;6.90;99.90;;;;;;5078007;28;20476;-67
2023/11/17 10:43:05;;;;;;;25.63;19.63;;;6.80;99.90;;;;;;5079329;28;20436;-66
2023/11/17 10:45:35;;;;;;;23.40;19.03;;;6.90;99.90;;;;;;5065428;28;20476;-67
2023/11/17 10:48:06;;;;;;;26.77;19.80;;;6.90;99.90;;;;;;5080225;28;20579;-67
2023/11/17 10:50:35;;;;;;;27.10;21.27;;;7.00;99.90;;;;;;5080465;28;20457;-67
2023/11/17 10:53:13;;;;;;;28.83;22.13;;;7.10;99.90;;;;;;5080593;28;20595;-67
2023/11/17 10:55:42;;;;;;;23.20;18.33;;;7.10;99.90;;;;;;5080343;28;20487;-67
2023/11/17 10:58:15;;;;;;;24.13;17.87;;;7.20;99.90;;;;;;5080847;28;20458;-67
2023/11/17 11:00:48;;;;;;;26.63;18.93;;;7.20;99.90;;;;;;5079905;28;20550;-67
2023/11/17 11:03:16;;;;;;;26.07;17.43;;;7.30;99.90;;;;;;5079556;28;20519;-66
2023/11/17 11:05:44;;;;;;;21.47;16.60;;;7.30;99.90;;;;;;5079905;28;20551;-66
2023/11/17 11:08:13;;;;;;;24.23;18.57;;;7.30;99.90;;;;;;5079840;28;20756;-66
2023/11/17 11:10:50;;;;;;;23.30;17.80;;;7.30;99.90;;;;;;5080370;28;20457;-66
2023/11/17 11:13:18;;;;;;;23.50;18.50;;;7.40;99.90;;;;;;5080393;28;20564;-65
2023/11/17 11:15:58;;;;;;;22.30;18.37;;;7.40;99.90;;;;;;5080363;28;20511;-66
2023/11/17 11:18:26;;;;;;;26.07;19.10;;;7.40;99.90;;;;;;5080319;28;20458;-66
2023/11/17 11:20:54;;;;;;;21.50;17.07;;;7.40;99.90;;;;;;5080740;28;20461;-66
2023/11/17 11:23:23;;;;;;;23.13;17.00;;;7.40;99.90;;;;;;5080728;28;20461;-66
2023/11/17 11:25:52;;;;;;;24.53;17.67;;;7.40;99.90;;;;;;5080459;28;20527;-66
2023/11/17 11:28:21;;;;;;;22.27;18.10;;;7.40;99.90;;;;;;5079069;28;20580;-66
2023/11/17 11:30:51;;;;;;;23.60;17.80;;;7.40;99.90;;;;;;5080015;28;20893;-66
2023/11/17 11:33:20;;;;;;;24.03;17.70;;;7.40;99.90;;;;;;5079347;28;20462;-65
2023/11/17 11:35:48;;;;;;;21.37;16.70;;;7.40;99.90;;;;;;5079373;28;20476;-65
2023/11/17 11:38:15;;;;;;;22.60;17.43;;;7.40;99.90;;;;;;5078900;28;20450;-66
2023/11/17 11:40:43;;;;;;;21.53;16.30;;;7.40;99.90;;;;;;5079140;28;20464;-66
2023/11/17 11:43:12;;;;;;;22.47;17.43;;;7.40;99.90;;;;;;5078711;28;20489;-66
2023/11/17 11:45:41;;;;;;;23.13;17.50;;;7.40;99.90;;;;;;5078370;28;20462;-63
2023/11/17 11:48:11;;;;;;;23.97;17.70;;;7.50;99.90;;;;;;5077559;28;20952;-63
2023/11/17 11:50:39;;;;;;;20.20;15.90;;;7.60;99.90;;;;;;5077397;28;20763;-63
2023/11/17 11:53:24;;;;;;;21.67;15.40;;;7.80;99.90;;;;;;5077835;28;20457;-63
2023/11/17 11:55:54;;;;;;;19.83;15.87;;;8.10;99.90;;;;;;5077927;28;20477;-60
2023/11/17 11:58:23;;;;;;;23.43;16.23;;;8.20;99.90;;;;;;5077412;28;20728;-60
2023/11/17 12:00:58;;;;;;;19.37;16.00;;;8.40;99.90;;;;;;5073010;28;20480;-60
2023/11/17 12:03:34;;;;;;;18.20;14.37;;;8.60;99.90;;;;;;5068393;28;20464;-60
2023/11/17 12:06:02;;;;;;;20.27;15.23;;;8.70;99.90;;;;;;5074028;28;20492;-60
2023/11/17 12:08:31;;;;;;;19.53;15.40;;;8.70;1.00;;;;;;5075729;28;20558;-60
2023/11/17 12:11:00;;;;;;;18.77;14.70;;;8.40;1.00;;;;;;5075593;28;20470;-60
2023/11/17 12:13:41;;;;;;;20.43;15.40;;;8.30;99.90;;;;;;5074760;28;20511;-60
2023/11/17 12:16:11;;;;;;;22.80;15.73;;;8.50;99.90;;;;;;5075371;28;20863;-60
2023/11/17 12:18:44;;;;;;;23.57;15.13;;;8.50;99.90;;;;;;5076471;28;20460;-60
2023/11/17 12:21:18;;;;;;;19.20;14.80;;;8.60;99.90;;;;;;5072715;28;20577;-60
2023/11/17 12:23:49;;;;;;;16.13;13.40;;;8.60;99.90;;;;;;5073431;28;20788;-59
2023/11/17 12:26:18;;;;;;;21.47;14.97;;;8.70;99.90;;;;;;5076451;28;20453;-60
2023/11/17 12:28:46;;;;;;;21.33;14.80;;;8.70;99.90;;;;;;5072373;28;20483;-61
2023/11/17 12:31:15;;;;;;;21.50;14.60;;;8.70;1.00;;;;;;5074163;28;20485;-60
2023/11/17 12:33:44;;;;;;;16.60;14.23;;;8.60;99.90;;;;;;5074583;28;20458;-61
2023/11/17 12:36:15;;;;;;;16.33;13.47;;;8.40;99.90;;;;;;5073258;28;20511;-61
2023/11/17 12:38:44;;;;;;;21.47;14.93;;;8.40;99.90;;;;;;5073791;28;20453;-61
2023/11/17 12:41:12;;;;;;;21.17;16.33;;;8.40;1.00;;;;;;5072343;28;22147;-61
2023/11/17 12:43:40;;;;;;;23.90;15.97;;;8.40;1.00;;;;;;5072645;28;20818;-61
2023/11/17 12:46:08;;;;;;;20.20;14.00;;;8.30;99.90;;;;;;5071007;28;20806;-61
2023/11/17 12:48:38;;;;;;;22.57;14.80;;;8.20;1.00;;;;;;5074670;28;20492;-61